Time;durP1;ratioP1;P1;durP2;ratioP2;P2;SDS_P1;SDS_P2;PMS_P1;PMS_P2;Temp;Humidity;BMP_temperature;BMP_pressure;BME280_temperature;BME280_humidity;BME280_pressure;Samples;Min_cycle;Max_cycle;Signal;HPM_P1;HPM_P2
2022/05/01 00:00:38;;;;;;;16.90;12.48;;;;;;;8.74;78.13;101672.72;5017943;28;20052;-81
2022/05/01 00:03:06;;;;;;;18.98;14.07;;;;;;;8.68;78.25;101670.56;5018384;28;20050;-80
2022/05/01 00:05:33;;;;;;;17.83;12.73;;;;;;;8.55;78.31;101657.63;5020933;28;20054;-81
2022/05/01 00:08:00;;;;;;;19.33;12.95;;;;;;;8.64;78.83;101676.97;5020482;28;20053;-80
2022/05/01 00:10:32;;;;;;;18.92;14.00;;;;;;;8.71;78.52;101675.56;5021121;28;20062;-80
2022/05/01 00:12:59;;;;;;;;;;;;;;;8.81;78.17;101679.13;5022609;28;20458;-80
2022/05/01 00:15:27;;;;;;;17.83;13.18;;;;;;;8.66;78.86;101669.84;5020366;28;19921;-80
2022/05/01 00:17:54;;;;;;;19.25;14.05;;;;;;;8.75;78.79;101671.75;5017376;28;20092;-80
2022/05/01 00:20:22;;;;;;;15.85;12.68;;;;;;;8.72;78.67;101666.78;5020252;28;20060;-79
2022/05/01 00:22:49;;;;;;;16.23;13.05;;;;;;;8.68;78.73;101670.56;5019019;28;20122;-80
2022/05/01 00:25:16;;;;;;;18.17;13.10;;;;;;;8.74;78.98;101675.31;5024572;28;20092;-79
2022/05/01 00:27:42;;;;;;;17.92;13.18;;;;;;;8.68;79.03;101670.56;5033801;28;20108;-79
2022/05/01 00:30:09;;;;;;;18.63;13.90;;;;;;;8.60;79.32;101663.31;5012864;28;20065;-79
2022/05/01 00:38:03;;;;;;;15.88;12.98;;;;;;;8.70;78.96;101660.00;5019255;28;20064;-80
2022/05/01 00:40:29;;;;;;;18.58;12.95;;;;;;;8.56;79.08;101654.06;5019042;28;20050;-79
2022/05/01 00:43:01;;;;;;;17.95;14.25;;;;;;;8.44;79.78;101656.81;5017106;28;20455;-78
2022/05/01 00:45:28;;;;;;;16.57;13.77;;;;;;;8.50;79.76;101651.97;5016848;28;20109;-79
2022/05/01 00:47:54;;;;;;;17.60;13.70;;;;;;;8.37;80.39;101651.22;5017214;28;20113;-78
2022/05/01 00:50:21;;;;;;;18.42;14.18;;;;;;;8.35;80.72;101654.91;5017816;28;20122;-78
2022/05/01 00:52:48;;;;;;;18.08;14.45;;;;;;;8.24;81.07;101653.91;5015808;28;20054;-77
2022/05/01 00:55:16;;;;;;;18.77;13.95;;;;;;;8.18;81.62;101656.97;5014892;28;20081;-79
2022/05/01 00:57:44;;;;;;;18.73;13.27;;;;;;;8.19;81.52;101648.19;5016441;28;20476;-79
2022/05/01 01:00:12;;;;;;;19.92;14.23;;;;;;;8.06;82.25;101655.28;5019093;28;20084;-79
2022/05/01 01:02:41;;;;;;;18.23;14.00;;;;;;;8.03;82.49;101652.09;5020423;28;20050;-79
2022/05/01 01:05:08;;;;;;;18.85;13.73;;;;;;;7.98;82.29;101655.03;5018683;28;20058;-79
2022/05/01 01:07:35;;;;;;;22.20;14.10;;;;;;;7.96;82.83;101656.94;5019896;28;20109;-80
2022/05/01 01:10:02;;;;;;;17.95;13.57;;;;;;;7.88;83.12;101648.84;5022521;28;20049;-80
2022/05/01 01:15:14;;;;;;;17.35;14.50;;;;;;;7.75;83.32;101650.69;5022073;28;20053;-79
2022/05/01 01:17:42;;;;;;;18.13;13.93;;;;;;;7.75;83.78;101648.91;5022532;28;20492;-78
2022/05/01 01:20:12;;;;;;;20.30;14.38;;;;;;;7.69;83.70;101656.34;5025899;28;20129;-79
2022/05/01 01:22:47;;;;;;;18.35;14.25;;;;;;;7.65;84.18;101653.97;5026230;28;20054;-79
2022/05/01 01:25:15;;;;;;;22.25;14.18;;;;;;;7.55;84.31;101663.41;5023743;28;20058;-79
2022/05/01 01:27:42;;;;;;;22.52;14.65;;;;;;;7.53;84.28;101657.47;5020775;28;20041;-81
2022/05/01 01:32:54;;;;;;;19.42;14.57;;;;;;;7.55;84.26;101649.56;5020826;28;20065;-79
2022/05/01 01:35:24;;;;;;;21.80;15.65;;;;;;;7.51;84.74;101661.13;5020569;28;20433;-79
2022/05/01 01:37:54;;;;;;;20.80;15.00;;;;;;;7.52;84.37;101663.63;5019584;28;20491;-77
2022/05/01 01:40:23;;;;;;;18.63;14.77;;;;;;;7.52;84.05;101663.63;5018626;28;20132;-79
2022/05/01 01:42:51;;;;;;;19.70;15.05;;;;;;;7.40;84.66;101664.50;5019422;28;20073;-81
2022/05/01 01:45:18;;;;;;;24.70;14.82;;;;;;;7.39;84.74;101664.63;5018145;28;20054;-79
2022/05/01 01:47:49;;;;;;;23.38;14.57;;;;;;;7.21;85.25;101658.94;5019161;28;20520;-79
2022/05/01 01:50:16;;;;;;;24.05;16.08;;;;;;;7.15;85.75;101665.41;5018994;28;20411;-80
2022/05/01 01:52:46;;;;;;;20.23;15.38;;;;;;;7.20;85.65;101672.91;5019066;28;20512;-80
2022/05/01 01:55:15;;;;;;;20.58;14.30;;;;;;;7.11;86.26;101673.53;5020349;28;20057;-81
2022/05/01 01:57:42;;;;;;;19.20;14.85;;;;;;;7.11;86.24;101673.53;5019595;28;20053;-80
2022/05/01 02:00:10;;;;;;;21.10;14.50;;;;;;;7.06;86.42;101662.66;5019529;28;20049;-80
2022/05/01 02:02:37;;;;;;;22.35;15.68;;;;;;;7.12;86.58;101660.44;5020538;28;20084;-80
2022/05/01 02:05:04;;;;;;;22.50;15.48;;;;;;;7.12;86.25;101667.41;5020964;28;20108;-80
2022/05/01 02:07:31;;;;;;;22.10;16.13;;;;;;;7.20;85.85;101672.91;5025093;28;20058;-81
2022/05/01 02:09:57;;;;;;;17.70;14.32;;;;;;;7.15;85.95;101659.38;5027111;28;20197;-81
2022/05/01 02:12:25;;;;;;;21.75;16.08;;;;;;;7.04;86.44;101672.34;5020937;28;20164;-79
2022/05/01 02:14:52;;;;;;;25.30;16.88;;;;;;;7.10;86.17;101669.28;5016546;28;20190;-79
2022/05/01 02:17:19;;;;;;;24.60;16.67;;;;;;;7.07;86.23;101672.97;5017153;28;20137;-79
2022/05/01 02:19:47;;;;;;;23.33;16.38;;;;;;;7.06;86.69;101670.47;5018794;28;20069;-79
2022/05/01 02:22:15;;;;;;;23.02;16.45;;;;;;;7.01;86.41;101664.75;5018182;28;20049;-79
2022/05/01 02:24:42;;;;;;;23.50;16.00;;;;;;;7.06;86.30;101666.09;5018402;28;20085;-80
2022/05/01 02:27:09;;;;;;;19.75;16.48;;;;;;;6.98;86.64;101661.41;5018166;28;20109;-79
2022/05/01 02:29:37;;;;;;;23.30;16.85;;;;;;;7.01;86.60;101662.16;5018407;28;20121;-79
2022/05/01 02:32:04;;;;;;;22.10;16.08;;;;;;;7.02;87.00;101654.22;5018654;28;20133;-79
2022/05/01 02:34:30;;;;;;;21.35;16.50;;;;;;;6.97;87.23;101651.13;5017817;28;20081;-80
2022/05/01 02:36:57;;;;;;;25.65;16.63;;;;;;;6.95;87.32;101653.00;5019279;28;20077;-81
2022/05/01 02:39:24;;;;;;;22.42;16.15;;;;;;;6.90;87.63;101655.91;5019039;28;20056;-81
2022/05/01 02:41:51;;;;;;;21.52;17.77;;;;;;;6.86;87.56;101649.25;5018428;28;20105;-80
2022/05/01 02:44:17;;;;;;;28.17;17.30;;;;;;;6.88;87.88;101656.97;5016704;28;20068;-79
2022/05/01 02:46:46;;;;;;;26.08;17.92;;;;;;;6.94;87.61;101653.94;5016458;28;20057;-80
2022/05/01 02:49:14;;;;;;;22.98;17.13;;;;;;;6.87;87.88;101650.94;5016898;28;20050;-79
2022/05/01 02:51:40;;;;;;;23.88;17.77;;;;;;;6.87;88.05;101657.91;5017406;28;20061;-80
2022/05/01 02:54:07;;;;;;;21.85;16.75;;;;;;;6.82;88.30;101653.00;5017853;28;20133;-80
2022/05/01 02:56:34;;;;;;;24.42;18.10;;;;;;;6.80;88.19;101647.09;5017792;28;20124;-80
2022/05/01 02:59:01;;;;;;;23.80;17.70;;;;;;;6.70;88.63;101637.41;5017698;28;20072;-80
2022/05/01 03:01:29;;;;;;;26.10;19.50;;;;;;;6.71;88.86;101645.13;5017847;28;20050;-80
2022/05/01 03:03:57;;;;;;;27.45;19.15;;;;;;;6.71;88.91;101647.72;5018085;28;20053;-79
2022/05/01 03:06:23;;;;;;;27.45;18.80;;;;;;;6.70;88.69;101642.63;5017004;28;20496;-80
2022/05/01 03:08:50;;;;;;;25.10;19.08;;;;;;;6.60;89.16;101648.47;5016887;28;20535;-80
2022/05/01 03:11:26;;;;;;;26.27;19.30;;;;;;;6.53;89.64;101638.59;5018313;28;20128;-80
2022/05/01 03:13:52;;;;;;;29.00;18.83;;;;;;;6.48;89.51;101640.69;5018319;28;20089;-79
2022/05/01 03:16:19;;;;;;;26.88;19.08;;;;;;;6.54;89.88;101640.28;5003200;28;20057;-79
2022/05/01 03:24:18;;;;;;;25.58;18.58;;;;;;;6.54;89.94;101641.09;4999075;28;20117;-80
2022/05/01 03:26:47;;;;;;;24.85;17.63;;;;;;;6.53;89.65;101628.19;4998254;28;20375;-80
2022/05/01 03:29:14;;;;;;;25.98;18.98;;;;;;;6.44;90.53;101628.81;4997786;28;20046;-80
2022/05/01 03:31:40;;;;;;;25.35;18.88;;;;;;;6.38;90.26;101618.84;4998847;28;20117;-80
2022/05/01 03:34:07;;;;;;;24.75;18.27;;;;;;;6.35;90.66;101622.47;4997003;28;20112;-79
2022/05/01 03:36:35;;;;;;;24.90;18.63;;;;;;;6.25;91.09;101624.88;4996068;28;20046;-79
2022/05/01 03:39:04;;;;;;;27.13;19.98;;;;;;;6.24;91.35;101624.97;4996359;28;20106;-78
2022/05/01 03:41:32;;;;;;;24.45;18.75;;;;;;;6.25;90.86;101621.44;5000637;28;20531;-79
2022/05/01 03:43:59;;;;;;;29.75;18.90;;;;;;;6.20;90.59;101619.16;5001409;28;20141;-79
2022/05/01 03:46:25;;;;;;;25.05;18.20;;;;;;;6.18;90.79;101625.38;5000443;28;20121;-79
2022/05/01 03:48:52;;;;;;;27.95;19.00;;;;;;;6.27;91.09;101629.97;4999115;28;20086;-78
2022/05/01 03:54:02;;;;;;;34.03;20.85;;;;;;;6.47;91.05;101631.22;5033700;28;20099;-79
2022/05/01 03:56:29;;;;;;;29.90;20.30;;;;;;;6.63;90.31;101626.59;5036555;28;20475;-79
2022/05/01 03:58:55;;;;;;;27.50;19.98;;;;;;;6.63;89.98;101624.84;5036459;28;20045;-79
2022/05/01 04:01:22;;;;;;;26.50;20.35;;;;;;;6.66;90.66;101623.78;5038762;28;20103;-81
2022/05/01 04:03:49;;;;;;;27.17;19.98;;;;;;;6.68;90.27;101626.28;5039180;28;20128;-81
2022/05/01 04:06:15;;;;;;;25.50;19.98;;;;;;;6.74;90.47;101628.47;5038472;28;20080;-80
2022/05/01 04:08:42;;;;;;;31.95;20.52;;;;;;;6.76;90.29;101630.03;5038443;28;20047;-80
2022/05/01 04:11:10;;;;;;;24.45;19.02;;;;;;;6.79;90.62;101618.56;5039078;28;20075;-80
2022/05/01 04:13:37;;;;;;;28.08;20.08;;;;;;;6.90;89.75;101629.91;5039580;28;20057;-81
2022/05/01 04:16:05;;;;;;;30.80;21.45;;;;;;;6.94;90.27;101620.94;5039860;28;20085;-81
2022/05/01 04:18:32;;;;;;;28.25;19.95;;;;;;;6.97;90.41;101623.31;5039248;28;20081;-81
2022/05/01 04:20:58;;;;;;;26.23;19.40;;;;;;;7.04;90.24;101625.50;5048505;28;20059;-80
2022/05/01 04:23:25;;;;;;;26.35;19.48;;;;;;;7.11;90.13;101626.69;5045631;28;20481;-79
2022/05/01 04:25:51;;;;;;;29.65;20.33;;;;;;;7.20;89.69;101620.84;5037076;28;20077;-79
2022/05/01 04:28:20;;;;;;;23.83;19.02;;;;;;;7.20;89.31;101621.66;5037983;28;20053;-80
2022/05/01 04:30:50;;;;;;;30.90;22.08;;;;;;;7.27;89.40;101617.69;5039084;28;20140;-81
2022/05/01 04:33:17;;;;;;;31.65;19.33;;;;;;;7.33;89.16;101622.47;5039377;28;20045;-81
2022/05/01 04:35:45;;;;;;;26.65;19.30;;;;;;;7.39;89.13;101620.34;5039151;28;20121;-81
2022/05/01 04:38:15;;;;;;;28.92;19.83;;;;;;;7.47;88.83;101620.63;5039022;28;20191;-82
2022/05/01 04:40:45;;;;;;;26.80;19.98;;;;;;;7.58;88.83;101612.84;5039324;28;20095;-81
2022/05/01 04:43:13;;;;;;;26.63;20.42;;;;;;;7.72;88.22;101615.25;5039625;28;20137;-81
2022/05/01 04:45:43;;;;;;;28.17;19.85;;;;;;;7.93;87.59;101612.84;5042093;28;20080;-80
2022/05/01 04:48:10;;;;;;;24.17;19.58;;;;;;;8.02;87.12;101617.38;5039003;28;20056;-80
2022/05/01 04:50:38;;;;;;;28.48;19.08;;;;;;;8.24;86.67;101614.78;5038399;28;20095;-81
2022/05/01 04:53:06;;;;;;;26.35;19.15;;;;;;;8.27;86.16;101619.78;5038171;28;20057;-79
2022/05/01 04:55:33;;;;;;;26.92;19.48;;;;;;;8.48;85.79;101616.50;5037962;28;20091;-79
2022/05/01 04:58:00;;;;;;;27.55;19.00;;;;;;;8.65;85.35;101614.22;5038338;28;20506;-78
2022/05/01 05:00:27;;;;;;;26.35;19.02;;;;;;;8.71;84.35;101610.31;5038555;28;20049;-80
2022/05/01 05:02:56;;;;;;;29.25;19.00;;;;;;;8.98;83.59;101620.34;5044592;28;20060;-81
2022/05/01 05:05:24;;;;;;;23.52;18.45;;;;;;;9.18;82.94;101621.38;5057545;28;20036;-80
2022/05/01 05:07:51;;;;;;;23.42;18.45;;;;;;;9.29;82.51;101623.97;5057314;28;20045;-79
2022/05/01 05:10:17;;;;;;;26.02;18.45;;;;;;;9.60;80.90;101623.13;5057704;28;20030;-80
2022/05/01 05:12:45;;;;;;;21.13;17.60;;;;;;;10.03;79.03;101614.34;5053254;28;20111;-81
2022/05/01 05:15:14;;;;;;;24.95;17.67;;;;;;;10.62;77.32;101625.00;5035913;28;20048;-81
2022/05/01 05:17:41;;;;;;;23.92;17.42;;;;;;;11.14;74.82;101627.47;5035707;28;20345;-80
2022/05/01 05:20:11;;;;;;;22.58;16.83;;;;;;;11.34;73.13;101623.94;5034421;28;20133;-80
2022/05/01 05:22:38;;;;;;;25.90;17.73;;;;;;;11.66;72.08;101628.06;5036180;28;20133;-81
2022/05/01 05:25:08;;;;;;;20.88;16.33;;;;;;;11.69;70.79;101628.63;5036513;28;20139;-81
2022/05/01 05:27:35;;;;;;;22.00;16.48;;;;;;;12.25;69.10;101620.81;5037911;28;20103;-80
2022/05/01 05:30:02;;;;;;;19.30;16.48;;;;;;;12.66;67.58;101633.66;5035804;28;20105;-80
2022/05/01 05:32:28;;;;;;;24.25;16.42;;;;;;;13.15;65.72;101633.25;5035925;28;20064;-80
2022/05/01 05:34:55;;;;;;;20.17;15.15;;;;;;;13.49;63.94;101637.84;5033540;28;20041;-80
2022/05/01 05:37:23;;;;;;;19.85;15.15;;;;;;;13.01;64.14;101628.47;5033547;28;20505;-80
2022/05/01 05:39:50;;;;;;;22.00;15.77;;;;;;;12.81;65.69;101642.69;5035373;28;20140;-80
2022/05/01 05:42:18;;;;;;;18.17;15.75;;;;;;;13.26;64.68;101637.47;5036435;28;20511;-80
2022/05/01 05:44:45;;;;;;;19.35;15.88;;;;;;;12.97;64.19;101629.75;5036391;28;20049;-79
2022/05/01 05:47:12;;;;;;;18.83;16.15;;;;;;;13.18;64.34;101635.59;5036976;28;20148;-80
2022/05/01 05:49:38;;;;;;;17.88;15.65;;;;;;;14.13;62.27;101640.19;5035850;28;20061;-80
2022/05/01 05:52:05;;;;;;;19.38;15.68;;;;;;;13.18;63.66;101635.59;5041162;28;20045;-80
2022/05/01 05:54:33;;;;;;;19.17;15.40;;;;;;;13.35;63.03;101636.56;5056329;28;20059;-80
2022/05/01 05:57:04;;;;;;;18.67;15.65;;;;;;;13.40;62.31;101644.84;5056672;28;20080;-79
2022/05/01 05:59:31;;;;;;;19.55;16.00;;;;;;;11.89;66.95;101646.00;5055188;28;20056;-79
2022/05/01 06:01:58;;;;;;;19.20;16.38;;;;;;;11.06;70.48;101646.47;5055422;28;20134;-81
2022/05/01 06:04:25;;;;;;;22.25;16.17;;;;;;;11.20;71.06;101650.53;5055601;28;20135;-79
2022/05/01 06:06:51;;;;;;;21.02;17.13;;;;;;;10.86;72.00;101650.84;5056115;28;20127;-80
2022/05/01 06:09:18;;;;;;;18.98;16.73;;;;;;;11.26;71.98;101645.56;5055474;28;20532;-80
2022/05/01 06:11:46;;;;;;;24.73;17.02;;;;;;;11.34;71.15;101646.69;5056508;28;20099;-80
2022/05/01 06:14:12;;;;;;;21.60;16.63;;;;;;;12.38;68.08;101645.91;5056941;28;20148;-80
2022/05/01 06:16:39;;;;;;;26.63;16.85;;;;;;;13.04;64.09;101643.94;5042379;28;20069;-80
2022/05/01 06:19:06;;;;;;;17.92;15.20;;;;;;;12.88;65.39;101647.22;5036341;28;20080;-80
2022/05/01 06:21:32;;;;;;;21.83;16.33;;;;;;;13.70;62.52;101641.03;5036897;28;20085;-80
2022/05/01 06:23:59;;;;;;;18.63;15.25;;;;;;;13.55;63.36;101647.78;5037451;28;20045;-81
2022/05/01 06:26:26;;;;;;;20.88;16.33;;;;;;;14.23;61.33;101648.78;5036269;28;20132;-81
2022/05/01 06:28:54;;;;;;;19.50;16.40;;;;;;;14.08;61.30;101642.44;5036533;28;20105;-81
2022/05/01 06:31:24;;;;;;;17.88;15.60;;;;;;;14.71;60.09;101642.16;5036681;28;20117;-83
2022/05/01 06:33:50;;;;;;;21.48;15.98;;;;;;;14.37;60.54;101655.28;5042452;23;20111;-81
2022/05/01 06:36:17;;;;;;;19.35;15.98;;;;;;;15.14;57.90;101656.13;5034856;28;20060;-79
2022/05/01 06:38:44;;;;;;;20.83;15.30;;;;;;;15.71;56.54;101650.97;5037621;28;20133;-78
2022/05/01 06:41:12;;;;;;;23.75;16.13;;;;;;;15.39;57.20;101647.28;5040097;28;20132;-79
2022/05/01 06:43:38;;;;;;;19.67;15.73;;;;;;;15.41;57.50;101655.03;5039445;28;20108;-78
2022/05/01 06:46:13;;;;;;;17.05;15.25;;;;;;;16.50;54.01;101637.00;5067477;23;20117;-80
2022/05/01 06:48:40;;;;;;;19.00;16.27;;;;;;;16.01;54.76;101638.94;5047867;28;20045;-80
2022/05/01 06:51:06;;;;;;;17.75;15.88;;;;;;;15.72;56.05;101642.06;5060143;28;20219;-81
2022/05/01 06:53:36;;;;;;;16.48;14.77;;;;;;;16.58;53.00;101642.22;5060132;28;20049;-80
2022/05/01 06:56:05;;;;;;;21.30;15.88;;;;;;;16.52;53.60;101629.72;5032563;28;20050;-82
2022/05/01 06:58:33;;;;;;;21.25;15.70;;;;;;;16.51;52.85;101628.06;5039374;28;20049;-81
2022/05/01 07:01:07;;;;;;;19.77;15.15;;;;;;;17.46;50.64;101642.78;5040628;28;20131;-80
2022/05/01 07:03:40;;;;;;;16.98;15.15;;;;;;;16.90;51.91;101638.69;5040807;28;20396;-80
2022/05/01 07:06:07;;;;;;;18.20;15.45;;;;;;;17.70;50.24;101654.22;5041047;28;20053;-83
2022/05/01 07:08:34;;;;;;;17.40;15.32;;;;;;;17.97;49.29;101647.50;5037085;28;20504;-79
2022/05/01 07:13:57;;;;;;;18.42;15.55;;;;;;;16.61;51.79;101639.25;4996035;28;20144;-82
2022/05/01 07:16:26;;;;;;;18.30;15.57;;;;;;;17.29;50.26;101635.13;5155945;23;20465;-80
2022/05/01 07:18:54;;;;;;;19.13;16.52;;;;;;;17.63;48.87;101642.66;5052944;28;20048;-79
2022/05/01 07:21:21;;;;;;;17.10;15.30;;;;;;;17.37;50.64;101635.91;5046304;28;20063;-78
2022/05/01 07:23:47;;;;;;;18.00;15.55;;;;;;;18.19;47.33;101642.16;5041123;28;20049;-79
2022/05/01 07:26:14;;;;;;;23.17;16.02;;;;;;;16.13;51.86;101645.47;5055071;28;20048;-79
2022/05/01 07:28:40;;;;;;;17.85;15.13;;;;;;;15.81;52.51;101630.53;5061068;28;20084;-81
2022/05/01 07:31:07;;;;;;;17.77;15.50;;;;;;;16.81;52.25;101645.81;5025653;23;20580;-77
2022/05/01 07:33:34;;;;;;;18.67;15.20;;;;;;;16.69;50.63;101641.91;5009436;28;20048;-78
2022/05/01 07:36:02;;;;;;;15.88;14.15;;;;;;;17.76;47.12;101643.75;5013559;28;20132;-77
2022/05/01 07:38:29;;;;;;;21.00;15.02;;;;;;;17.48;48.43;101643.44;5012774;28;20081;-79
2022/05/01 07:40:55;;;;;;;19.10;14.10;;;;;;;16.04;50.70;101636.78;5028856;28;20796;-78
2022/05/01 07:43:22;;;;;;;17.73;15.45;;;;;;;15.76;53.51;101638.09;5032081;28;20112;-78
2022/05/01 07:45:49;;;;;;;20.25;15.32;;;;;;;16.69;51.41;101651.63;5033253;28;20550;-79
2022/05/01 07:48:15;;;;;;;15.55;13.95;;;;;;;17.48;50.06;101646.09;5031405;28;20056;-78
2022/05/01 07:50:42;;;;;;;20.73;14.43;;;;;;;17.70;48.68;101638.34;5033725;28;20368;-78
2022/05/01 07:53:10;;;;;;;16.58;14.60;;;;;;;18.00;47.33;101642.69;5032488;28;20480;-78
2022/05/01 07:55:36;;;;;;;16.05;14.23;;;;;;;17.54;49.04;101640.06;5033566;28;20057;-78
2022/05/01 07:58:03;;;;;;;19.40;15.63;;;;;;;18.28;48.20;101645.56;5033379;28;20522;-78
2022/05/01 08:00:30;;;;;;;17.40;14.52;;;;;;;17.81;48.89;101643.22;5034012;28;20132;-78
2022/05/01 08:05:41;;;;;;;17.98;15.23;;;;;;;17.32;50.97;101643.53;5034034;28;20076;-78
2022/05/01 08:08:08;;;;;;;21.58;15.43;;;;;;;17.31;50.92;101646.38;5033333;28;20161;-79
2022/05/01 08:10:36;;;;;;;17.15;15.35;;;;;;;16.77;51.24;101647.16;5034319;28;20496;-79
2022/05/01 08:13:03;;;;;;;18.42;15.43;;;;;;;16.18;52.26;101638.72;5034203;28;20103;-78
2022/05/01 08:15:29;;;;;;;18.73;15.90;;;;;;;16.59;52.06;101635.94;5033686;28;20050;-78
2022/05/01 08:21:04;;;;;;;21.38;16.40;;;;;;;16.37;52.67;101647.25;5033533;28;20059;-77
2022/05/01 08:23:27;;;;;;;17.58;15.30;;;;;;;16.35;52.19;101638.69;5033882;28;20534;-77
2022/05/01 08:25:56;;;;;;;17.75;15.23;;;;;;;16.85;51.98;101646.28;5032943;28;20152;-79
2022/05/01 08:28:22;;;;;;;16.15;14.48;;;;;;;16.82;50.16;101646.63;5033334;28;20067;-77
2022/05/01 08:30:49;;;;;;;22.17;14.38;;;;;;;16.83;49.53;101648.28;5047959;28;20084;-77
2022/05/01 08:33:15;;;;;;;18.58;15.45;;;;;;;16.83;49.63;101638.53;5047762;28;20059;-77
2022/05/01 08:35:42;;;;;;;15.90;14.20;;;;;;;17.29;48.38;101641.25;5052035;28;20053;-78
2022/05/01 08:38:08;;;;;;;16.77;14.65;;;;;;;16.64;50.03;101641.59;5045321;28;20322;-77
2022/05/01 08:40:35;;;;;;;26.48;15.00;;;;;;;17.06;49.63;101646.50;5051236;28;20136;-78
2022/05/01 08:43:03;;;;;;;17.88;14.82;;;;;;;16.74;50.01;101642.22;5049429;28;20055;-78
2022/05/01 08:45:42;;;;;;;17.38;14.13;;;;;;;16.71;50.13;101639.91;5027964;28;20526;-79
2022/05/01 08:48:14;;;;;;;21.20;14.60;;;;;;;15.98;48.93;101637.44;5045744;28;20048;-78
2022/05/01 08:50:42;;;;;;;18.45;15.75;;;;;;;16.43;48.36;101638.66;5043756;28;20088;-78
2022/05/01 08:53:10;;;;;;;19.60;14.82;;;;;;;15.28;50.09;101639.69;5051681;28;20140;-75
2022/05/01 08:55:39;;;;;;;18.92;14.73;;;;;;;15.81;49.36;101638.44;5030094;28;20056;-78
2022/05/01 08:58:08;;;;;;;17.25;14.65;;;;;;;15.88;49.47;101631.50;5051411;28;20071;-78
2022/05/01 09:00:36;;;;;;;17.48;15.52;;;;;;;16.56;48.02;101628.38;5038116;28;20049;-76
2022/05/01 09:03:05;;;;;;;19.08;15.38;;;;;;;17.01;47.47;101640.94;5024326;28;20069;-77
2022/05/01 09:05:32;;;;;;;18.67;14.82;;;;;;;17.09;46.72;101637.41;5043967;28;20045;-76
2022/05/01 09:07:58;;;;;;;17.13;14.98;;;;;;;16.56;48.20;101639.75;5030178;28;20056;-75
2022/05/01 09:10:27;;;;;;;16.65;14.85;;;;;;;16.57;45.99;101635.28;5049185;28;20450;-77
2022/05/01 09:12:53;;;;;;;16.52;14.77;;;;;;;16.35;45.96;101628.13;5053394;28;20051;-77
2022/05/01 09:15:31;;;;;;;20.75;15.55;;;;;;;16.31;45.73;101634.72;5052575;28;20468;-77
2022/05/01 09:18:02;;;;;;;16.70;14.93;;;;;;;16.54;45.55;101627.75;5053149;28;20056;-77
2022/05/01 09:20:29;;;;;;;18.48;14.88;;;;;;;16.66;45.83;101634.31;5054274;28;20080;-77
2022/05/01 09:22:58;;;;;;;21.98;16.00;;;;;;;16.54;44.29;101638.31;5053248;28;20053;-77
2022/05/01 09:25:26;;;;;;;18.00;16.10;;;;;;;16.85;43.49;101633.91;5052174;28;20098;-77
2022/05/01 09:27:56;;;;;;;21.00;18.80;;;;;;;16.65;44.39;101635.31;5052319;28;20053;-76
2022/05/01 09:30:31;;;;;;;18.45;16.23;;;;;;;17.01;44.36;101642.75;5052857;28;20048;-77
2022/05/01 09:33:00;;;;;;;20.50;16.15;;;;;;;17.25;44.21;101629.38;5052661;28;20048;-75
2022/05/01 09:35:32;;;;;;;19.70;16.70;;;;;;;16.36;45.04;101630.59;5052210;28;20048;-77
2022/05/01 09:38:15;;;;;;;18.80;16.33;;;;;;;15.80;46.44;101634.16;5051892;28;20495;-76
2022/05/01 09:40:43;;;;;;;19.42;16.35;;;;;;;16.54;45.49;101636.47;5052313;28;20045;-77
2022/05/01 09:43:09;;;;;;;20.20;16.75;;;;;;;16.07;45.61;101633.78;5052265;28;20049;-77
2022/05/01 09:45:36;;;;;;;19.98;17.48;;;;;;;16.06;46.21;101645.34;5052568;28;20091;-78
2022/05/01 09:48:20;;;;;;;22.15;16.85;;;;;;;16.22;46.44;101634.75;5055125;28;20092;-78
2022/05/01 09:50:48;;;;;;;18.55;16.05;;;;;;;16.58;45.38;101636.94;5054095;28;20056;-78
2022/05/01 09:53:15;;;;;;;21.40;16.67;;;;;;;16.60;46.06;101637.59;5053204;28;20539;-78
2022/05/01 09:55:41;;;;;;;23.50;17.35;;;;;;;16.15;44.55;101630.31;5053069;28;20140;-78
2022/05/01 09:58:10;;;;;;;21.83;17.30;;;;;;;16.11;44.83;101627.16;5052330;28;20068;-78
2022/05/01 10:00:42;;;;;;;19.30;16.95;;;;;;;16.43;43.79;101625.47;5053555;28;20045;-78
2022/05/01 10:03:31;;;;;;;19.10;16.92;;;;;;;16.30;44.11;101627.81;5053970;28;20072;-78
2022/05/01 10:05:59;;;;;;;21.13;17.92;;;;;;;16.45;44.80;101626.94;5053206;28;20110;-79
2022/05/01 10:08:26;;;;;;;20.98;15.77;;;;;;;16.82;43.76;101634.25;5051256;28;20072;-78
2022/05/01 10:10:57;;;;;;;20.23;16.30;;;;;;;17.27;42.55;101632.66;5052176;28;20055;-78
2022/05/01 10:13:27;;;;;;;19.58;17.48;;;;;;;17.07;42.82;101628.81;5052556;28;20049;-79
2022/05/01 10:15:55;;;;;;;19.05;16.55;;;;;;;16.83;43.11;101633.25;5052873;28;20132;-79
2022/05/01 10:18:23;;;;;;;22.75;15.90;;;;;;;17.14;43.31;101624.47;5052508;28;20056;-79
2022/05/01 10:20:52;;;;;;;20.40;16.00;;;;;;;16.95;43.21;101630.22;5053096;28;20088;-79
2022/05/01 10:23:22;;;;;;;19.30;17.17;;;;;;;16.14;45.00;101626.00;5055614;28;20187;-79
2022/05/01 10:25:53;;;;;;;17.98;15.98;;;;;;;16.81;43.71;101624.66;5067715;28;20072;-78
2022/05/01 10:28:37;;;;;;;19.00;16.90;;;;;;;16.56;43.13;101620.44;5070294;28;20044;-78
2022/05/01 10:34:21;;;;;;;19.23;15.90;;;;;;;17.16;43.39;101625.13;5055611;28;20447;-79
2022/05/01 10:37:05;;;;;;;18.70;16.70;;;;;;;17.08;42.23;101604.00;5054084;28;20120;-79
2022/05/01 10:39:37;;;;;;;20.08;16.23;;;;;;;17.48;41.47;101601.09;5053533;28;20112;-78
2022/05/01 10:42:04;;;;;;;;;;;;;;;17.29;41.13;101598.94;5055550;28;20087;-80
2022/05/01 10:44:35;;;;;;;20.33;15.75;;;;;;;18.02;40.46;101606.25;5060210;28;20019;-78
2022/05/01 10:47:13;;;;;;;18.67;15.85;;;;;;;18.42;39.63;101609.47;5052377;28;20053;-76
2022/05/01 10:49:45;;;;;;;21.35;16.25;;;;;;;17.22;40.21;101590.03;5050057;28;20546;-78
2022/05/01 10:52:19;;;;;;;22.33;15.80;;;;;;;17.87;40.78;101593.00;5051345;28;20448;-77
2022/05/01 10:54:54;;;;;;;18.10;15.32;;;;;;;17.98;40.79;101586.44;5051150;28;20396;-77
2022/05/01 10:57:22;;;;;;;18.50;15.27;;;;;;;18.51;39.55;101582.66;5051641;28;20106;-77
2022/05/01 11:00:05;;;;;;;21.13;15.98;;;;;;;17.79;40.33;101581.66;5051025;28;20423;-78
2022/05/01 11:02:35;;;;;;;20.60;14.40;;;;;;;18.20;39.24;101580.25;5051236;28;20044;-78
2022/05/01 11:05:03;;;;;;;18.85;15.52;;;;;;;17.40;40.33;101585.28;5051754;28;20386;-78
2022/05/01 11:07:34;;;;;;;20.42;16.10;;;;;;;17.54;41.48;101568.63;5024598;28;20419;-78
2022/05/01 11:10:01;;;;;;;21.33;15.70;;;;;;;17.21;41.11;101572.53;5020122;28;20049;-77
2022/05/01 11:12:32;;;;;;;20.05;16.02;;;;;;;17.19;40.78;101567.41;5015362;28;20060;-78
2022/05/01 11:15:00;;;;;;;17.05;15.25;;;;;;;17.04;40.13;101569.16;5012470;28;20135;-77
2022/05/01 11:17:55;;;;;;;22.63;16.75;;;;;;;16.75;40.18;101575.13;5012092;28;20050;-77
2022/05/01 11:20:30;;;;;;;19.83;16.27;;;;;;;16.96;41.14;101552.56;5012295;28;20045;-77
2022/05/01 11:23:33;;;;;;;17.55;15.13;;;;;;;17.52;40.11;101562.69;5019391;28;20350;-78
2022/05/01 11:26:17;;;;;;;21.30;15.25;;;;;;;17.13;39.83;101557.53;5014156;28;20515;-77
2022/05/01 11:28:55;;;;;;;21.38;15.98;;;;;;;16.78;40.09;101553.66;5011155;28;20076;-78
2022/05/01 11:31:45;;;;;;;17.95;15.50;;;;;;;16.89;40.59;101555.91;5011647;28;20137;-77
2022/05/01 11:34:39;;;;;;;19.02;15.70;;;;;;;17.34;40.38;101546.31;5011973;28;20046;-77
2022/05/01 11:37:08;;;;;;;17.35;15.27;;;;;;;17.30;39.91;101544.19;4965414;28;20127;-78
2022/05/01 11:40:11;;;;;;;17.05;15.05;;;;;;;17.14;40.24;101545.97;5011583;28;20046;-78
2022/05/01 11:42:41;;;;;;;19.75;15.13;;;;;;;17.22;40.31;101529.22;5012690;28;20050;-78
2022/05/01 11:45:11;;;;;;;18.20;15.40;;;;;;;17.44;40.55;101536.31;5011687;28;20054;-77
2022/05/01 11:47:38;;;;;;;17.80;15.25;;;;;;;17.26;40.82;101538.44;5011778;28;20049;-77
2022/05/01 11:50:06;;;;;;;17.13;15.00;;;;;;;17.11;40.91;101532.25;5010628;28;20447;-77
2022/05/01 11:52:36;;;;;;;17.95;15.20;;;;;;;16.94;41.53;101525.47;5011194;28;20188;-77